createdAt,value
2018-12-21T00:00:46.743Z,987.51
2018-12-21T00:01:46.890Z,987.53
2018-12-21T00:02:47.040Z,987.56
2018-12-21T00:03:47.189Z,987.49
2018-12-21T00:04:47.334Z,987.46
2018-12-21T00:05:47.483Z,987.48
2018-12-21T00:06:47.629Z,987.48
2018-12-21T00:07:47.775Z,987.45
2018-12-21T00:08:47.923Z,987.43
2018-12-21T00:09:48.072Z,987.46
2018-12-21T00:10:48.220Z,987.49
2018-12-21T00:11:48.367Z,987.48
2018-12-21T00:12:48.514Z,987.50
2018-12-21T00:13:48.664Z,987.47
2018-12-21T00:14:48.808Z,987.44
2018-12-21T00:15:48.957Z,987.42
2018-12-21T00:16:49.103Z,987.39
2018-12-21T00:17:49.251Z,987.40
2018-12-21T00:18:49.399Z,987.38
2018-12-21T00:19:49.546Z,987.41
2018-12-21T00:20:49.693Z,987.40
2018-12-21T00:21:49.842Z,987.38
2018-12-21T00:22:49.991Z,987.30
2018-12-21T00:23:50.137Z,987.34
2018-12-21T00:24:50.284Z,987.36
2018-12-21T00:25:50.433Z,987.33
2018-12-21T00:26:50.577Z,987.35
2018-12-21T00:27:50.726Z,987.27
2018-12-21T00:28:50.872Z,987.33
2018-12-21T00:29:51.018Z,987.28
2018-12-21T00:30:51.165Z,987.29
2018-12-21T00:31:51.315Z,987.23
2018-12-21T00:32:51.462Z,987.23
2018-12-21T00:33:51.611Z,987.24
2018-12-21T00:34:51.757Z,987.18
2018-12-21T00:35:51.904Z,987.15
2018-12-21T00:36:52.053Z,987.12
2018-12-21T00:37:52.201Z,987.10
2018-12-21T00:38:52.348Z,987.04
2018-12-21T00:39:52.497Z,987.06
2018-12-21T00:40:52.642Z,987.06
2018-12-21T00:41:52.791Z,987.05
2018-12-21T00:42:52.935Z,987.02
2018-12-21T00:43:53.082Z,987.09
2018-12-21T00:44:53.232Z,987.05
2018-12-21T00:45:53.380Z,987.10
2018-12-21T00:46:53.527Z,987.09
2018-12-21T00:47:53.673Z,987.07
2018-12-21T00:48:53.821Z,987.13
2018-12-21T00:49:53.967Z,987.11
2018-12-21T00:50:54.114Z,987.08
2018-12-21T00:51:54.262Z,987.13
2018-12-21T00:52:54.407Z,987.15
2018-12-21T00:53:54.558Z,987.13
2018-12-21T00:54:54.702Z,987.14
2018-12-21T00:55:54.849Z,987.18
2018-12-21T00:56:54.996Z,987.14
2018-12-21T00:57:55.142Z,987.15
2018-12-21T00:58:55.288Z,987.14
2018-12-21T00:59:55.436Z,987.09
2018-12-21T01:00:55.583Z,987.08
2018-12-21T01:01:55.730Z,987.12
2018-12-21T01:02:55.879Z,987.11
2018-12-21T01:03:56.028Z,987.16
2018-12-21T01:04:56.174Z,987.13
2018-12-21T01:05:56.320Z,987.10
2018-12-21T01:06:56.484Z,987.15
2018-12-21T01:07:56.615Z,987.13
2018-12-21T01:08:56.763Z,987.13
2018-12-21T01:09:56.912Z,987.13
2018-12-21T01:10:57.060Z,987.06
2018-12-21T01:11:57.204Z,987.06
2018-12-21T01:12:57.350Z,987.05
2018-12-21T01:13:57.500Z,987.05
2018-12-21T01:14:57.650Z,987.07
2018-12-21T01:15:57.795Z,987.06
2018-12-21T01:16:57.941Z,987.02
2018-12-21T01:17:58.092Z,987.01
2018-12-21T01:18:58.239Z,987.01
2018-12-21T01:19:58.382Z,987.05
2018-12-21T01:20:58.527Z,987.02
2018-12-21T01:21:58.678Z,987.01
2018-12-21T01:22:58.820Z,987.04
2018-12-21T01:23:58.969Z,987.10
2018-12-21T01:24:59.116Z,987.07
2018-12-21T01:25:59.264Z,987.14
2018-12-21T01:26:59.411Z,987.12
2018-12-21T01:27:59.558Z,987.15
2018-12-21T01:28:59.705Z,987.21
2018-12-21T01:29:59.852Z,987.23
2018-12-21T01:30:59.999Z,987.25
2018-12-21T01:32:00.148Z,987.27
2018-12-21T01:33:00.294Z,987.23
2018-12-21T01:34:00.441Z,987.20
2018-12-21T01:35:00.586Z,987.19
2018-12-21T01:36:00.731Z,987.09
2018-12-21T01:37:00.880Z,987.10
2018-12-21T01:38:01.027Z,987.07
2018-12-21T01:39:01.173Z,987.06
2018-12-21T01:40:01.322Z,987.04
2018-12-21T01:41:01.469Z,987.10
2018-12-21T01:42:01.618Z,987.03
2018-12-21T01:43:01.764Z,987.07
2018-12-21T01:44:01.909Z,987.09
2018-12-21T01:45:02.056Z,987.04
2018-12-21T01:46:02.203Z,987.03
2018-12-21T01:47:02.350Z,987.01
2018-12-21T01:48:02.498Z,986.95
2018-12-21T01:49:02.644Z,986.97
2018-12-21T01:50:02.790Z,986.92
2018-12-21T01:51:02.942Z,986.92
2018-12-21T01:52:03.075Z,986.92
2018-12-21T01:53:03.221Z,986.91
2018-12-21T01:54:03.371Z,986.88
2018-12-21T01:55:03.516Z,986.90
2018-12-21T01:56:03.664Z,986.90
2018-12-21T01:57:03.808Z,986.87
2018-12-21T01:58:03.955Z,986.87
2018-12-21T01:59:04.101Z,986.83
2018-12-21T02:00:04.250Z,986.82
2018-12-21T02:01:04.397Z,986.84
2018-12-21T02:02:04.541Z,986.80
2018-12-21T02:03:04.687Z,986.76
2018-12-21T02:04:04.838Z,986.74
2018-12-21T02:05:04.985Z,986.74
2018-12-21T02:06:05.128Z,986.69
2018-12-21T02:07:05.273Z,986.72
2018-12-21T02:08:05.417Z,986.71
2018-12-21T02:09:05.566Z,986.73
2018-12-21T02:10:05.710Z,986.71
2018-12-21T02:11:05.860Z,986.70
2018-12-21T02:12:06.005Z,986.69
2018-12-21T02:13:06.152Z,986.66
2018-12-21T02:14:06.301Z,986.64
2018-12-21T02:15:06.450Z,986.69
2018-12-21T02:16:06.594Z,986.57
2018-12-21T02:17:06.743Z,986.59
2018-12-21T02:18:06.897Z,986.50
2018-12-21T02:19:07.035Z,986.55
2018-12-21T02:20:07.182Z,986.53
2018-12-21T02:21:07.332Z,986.49
2018-12-21T02:22:07.481Z,986.50
2018-12-21T02:23:07.626Z,986.48
2018-12-21T02:24:07.773Z,986.51
2018-12-21T02:25:07.919Z,986.53
2018-12-21T02:26:08.066Z,986.48
2018-12-21T02:27:08.217Z,986.51
2018-12-21T02:28:08.363Z,986.53
2018-12-21T02:29:08.511Z,986.55
2018-12-21T02:30:08.659Z,986.48
2018-12-21T02:31:08.805Z,986.51
2018-12-21T02:32:08.951Z,986.49
2018-12-21T02:33:09.097Z,986.44
2018-12-21T02:34:09.245Z,986.47
2018-12-21T02:35:09.388Z,986.41
2018-12-21T02:36:09.541Z,986.44
2018-12-21T02:37:09.685Z,986.43
2018-12-21T02:38:09.830Z,986.38
2018-12-21T02:39:09.987Z,986.37
2018-12-21T02:40:10.129Z,986.34
2018-12-21T02:41:10.274Z,986.30
2018-12-21T02:42:10.418Z,986.27
2018-12-21T02:43:10.566Z,986.23
2018-12-21T02:44:10.715Z,986.28
2018-12-21T02:45:10.859Z,986.26
2018-12-21T02:46:11.011Z,986.21
2018-12-21T02:47:11.152Z,986.24
2018-12-21T02:48:11.303Z,986.21
2018-12-21T02:49:11.447Z,986.22
2018-12-21T02:50:11.594Z,986.21
2018-12-21T02:51:11.742Z,986.20
2018-12-21T02:52:11.888Z,986.19
2018-12-21T02:53:12.036Z,986.18
2018-12-21T02:54:12.337Z,986.14
2018-12-21T02:55:12.327Z,986.14
2018-12-21T02:56:12.475Z,986.17
2018-12-21T02:57:12.625Z,986.15
2018-12-21T02:58:12.770Z,986.08
2018-12-21T02:59:12.918Z,986.18
2018-12-21T03:00:13.065Z,986.13
2018-12-21T03:01:13.213Z,986.15
2018-12-21T03:02:13.372Z,986.19
2018-12-21T03:03:13.538Z,986.13
2018-12-21T03:04:13.683Z,986.11
2018-12-21T03:05:13.846Z,986.16
2018-12-21T03:06:13.980Z,986.11
2018-12-21T03:07:14.124Z,986.10
2018-12-21T03:08:14.269Z,986.09
2018-12-21T03:09:14.418Z,986.10
2018-12-21T03:10:14.563Z,986.02
2018-12-21T03:11:14.724Z,986.01
2018-12-21T03:12:14.870Z,986.00
2018-12-21T03:13:15.017Z,985.99
2018-12-21T03:14:15.163Z,985.95
2018-12-21T03:15:15.311Z,985.91
2018-12-21T03:16:15.458Z,985.92
2018-12-21T03:17:15.607Z,985.91
2018-12-21T03:18:15.758Z,985.92
2018-12-21T03:19:15.904Z,985.85
2018-12-21T03:20:16.056Z,985.86
2018-12-21T03:21:16.200Z,985.80
2018-12-21T03:22:16.349Z,985.74
2018-12-21T03:23:16.497Z,985.81
2018-12-21T03:24:16.640Z,985.75
2018-12-21T03:25:16.790Z,985.76
2018-12-21T03:26:16.933Z,985.73
2018-12-21T03:27:17.082Z,985.69
2018-12-21T03:28:17.230Z,985.69
2018-12-21T03:29:17.377Z,985.61
2018-12-21T03:30:17.526Z,985.63
2018-12-21T03:31:17.673Z,985.61
2018-12-21T03:32:17.818Z,985.65
2018-12-21T03:33:17.971Z,985.65
2018-12-21T03:34:18.117Z,985.62
2018-12-21T03:35:18.267Z,985.52
2018-12-21T03:36:18.413Z,985.56
2018-12-21T03:37:18.557Z,985.57
2018-12-21T03:38:18.706Z,985.51
2018-12-21T03:39:18.852Z,985.45
2018-12-21T03:40:18.999Z,985.46
2018-12-21T03:41:19.148Z,985.47
2018-12-21T03:42:19.296Z,985.50
2018-12-21T03:43:19.445Z,985.51
2018-12-21T03:44:19.594Z,985.49
2018-12-21T03:45:19.740Z,985.52
2018-12-21T03:46:19.884Z,985.56
2018-12-21T03:47:20.033Z,985.52
2018-12-21T03:48:20.187Z,985.54
2018-12-21T03:49:20.330Z,985.60
2018-12-21T03:50:20.474Z,985.56
2018-12-21T03:51:20.621Z,985.54
2018-12-21T03:52:24.664Z,985.53
2018-12-21T03:53:20.918Z,985.54
2018-12-21T03:54:21.066Z,985.50
2018-12-21T03:55:21.212Z,985.52
2018-12-21T03:56:21.358Z,985.52
2018-12-21T03:57:21.508Z,985.49
2018-12-21T03:58:21.654Z,985.44
2018-12-21T03:59:21.809Z,985.49
2018-12-21T04:00:21.951Z,985.49
2018-12-21T04:01:22.096Z,985.47
2018-12-21T04:02:22.282Z,985.52
2018-12-21T04:03:22.388Z,985.48
2018-12-21T04:04:22.538Z,985.52
2018-12-21T04:05:22.689Z,985.45
2018-12-21T04:06:22.833Z,985.47
2018-12-21T04:07:22.984Z,985.38
2018-12-21T04:08:23.127Z,985.40
2018-12-21T04:09:23.274Z,985.37
2018-12-21T04:10:23.426Z,985.40
2018-12-21T04:11:23.571Z,985.38
2018-12-21T04:12:23.717Z,985.33
2018-12-21T04:13:23.864Z,985.31
2018-12-21T04:14:24.011Z,985.29
2018-12-21T04:15:24.160Z,985.26
2018-12-21T04:16:24.308Z,985.26
2018-12-21T04:17:24.456Z,985.25
2018-12-21T04:18:24.603Z,985.21
2018-12-21T04:19:24.749Z,985.19
2018-12-21T04:20:24.899Z,985.21
2018-12-21T04:21:25.045Z,985.23
2018-12-21T04:22:33.774Z,985.27
2018-12-21T04:23:25.337Z,985.22
2018-12-21T04:24:25.486Z,985.20
2018-12-21T04:25:25.635Z,985.24
2018-12-21T04:26:25.781Z,985.18
2018-12-21T04:27:25.928Z,985.14
2018-12-21T04:28:26.076Z,985.16
2018-12-21T04:29:26.237Z,985.15
2018-12-21T04:30:26.369Z,985.16
2018-12-21T04:31:26.518Z,985.12
2018-12-21T04:32:26.664Z,985.13
2018-12-21T04:33:26.809Z,985.09
2018-12-21T04:34:26.956Z,985.11
2018-12-21T04:35:27.106Z,985.14
2018-12-21T04:36:27.257Z,985.15
2018-12-21T04:37:27.415Z,985.16
2018-12-21T04:38:27.557Z,985.11
2018-12-21T04:39:27.710Z,985.11
2018-12-21T04:40:27.835Z,985.13
2018-12-21T04:41:28.020Z,985.09
2018-12-21T04:42:28.128Z,985.05
2018-12-21T04:43:28.276Z,985.08
2018-12-21T04:44:28.424Z,985.03
2018-12-21T04:45:28.574Z,984.99
2018-12-21T04:46:28.718Z,984.99
2018-12-21T04:47:28.870Z,984.99
2018-12-21T04:48:29.016Z,985.00
2018-12-21T04:49:29.160Z,984.99
2018-12-21T04:50:29.310Z,984.97
2018-12-21T04:51:29.457Z,984.99
2018-12-21T04:52:29.606Z,985.02
2018-12-21T04:53:29.752Z,985.02
2018-12-21T04:54:29.898Z,985.00
2018-12-21T04:55:30.050Z,985.01
2018-12-21T04:56:30.197Z,985.00
2018-12-21T04:57:30.343Z,984.98
2018-12-21T04:58:30.489Z,984.98
2018-12-21T04:59:30.636Z,985.04
2018-12-21T05:00:30.789Z,984.92
2018-12-21T05:01:30.930Z,984.85
2018-12-21T05:02:31.080Z,984.87
2018-12-21T05:03:31.228Z,984.85
2018-12-21T05:04:31.378Z,984.83
2018-12-21T05:05:31.524Z,984.80
2018-12-21T05:06:31.675Z,984.80
2018-12-21T05:07:31.820Z,984.83
2018-12-21T05:08:31.966Z,984.75
2018-12-21T05:09:32.115Z,984.81
2018-12-21T05:10:32.262Z,984.81
2018-12-21T05:11:32.410Z,984.83
2018-12-21T05:12:32.560Z,984.74
2018-12-21T05:13:32.703Z,984.75
2018-12-21T05:14:32.852Z,984.74
2018-12-21T05:15:33.000Z,984.80
2018-12-21T05:16:33.147Z,984.79
2018-12-21T05:17:33.295Z,984.79
2018-12-21T05:18:33.442Z,984.71
2018-12-21T05:19:33.592Z,984.67
2018-12-21T05:20:33.738Z,984.67
2018-12-21T05:21:33.891Z,984.65
2018-12-21T05:22:34.032Z,984.64
2018-12-21T05:23:34.179Z,984.62
2018-12-21T05:24:34.328Z,984.67
2018-12-21T05:25:34.477Z,984.59
2018-12-21T05:26:34.738Z,984.61
2018-12-21T05:27:34.774Z,984.58
2018-12-21T05:28:34.921Z,984.55
2018-12-21T05:29:35.070Z,984.54
2018-12-21T05:30:35.223Z,984.58
2018-12-21T05:31:35.365Z,984.43
2018-12-21T05:32:35.514Z,984.47
2018-12-21T05:33:35.661Z,984.50
2018-12-21T05:34:35.806Z,984.43
2018-12-21T05:35:35.957Z,984.41
2018-12-21T05:36:36.106Z,984.36
2018-12-21T05:37:36.251Z,984.32
2018-12-21T05:38:36.402Z,984.27
2018-12-21T05:39:36.544Z,984.31
2018-12-21T05:40:36.692Z,984.22
2018-12-21T05:41:36.839Z,984.17
2018-12-21T05:42:36.988Z,984.17
2018-12-21T05:43:37.136Z,984.26
2018-12-21T05:44:37.285Z,984.16
2018-12-21T05:45:37.432Z,984.18
2018-12-21T05:46:37.579Z,984.17
2018-12-21T05:47:37.727Z,984.12
2018-12-21T05:48:37.899Z,984.10
2018-12-21T05:49:38.016Z,984.06
2018-12-21T05:50:38.162Z,983.98
2018-12-21T05:51:38.312Z,984.00
2018-12-21T05:52:38.456Z,983.97
2018-12-21T05:53:38.603Z,983.92
2018-12-21T05:54:38.753Z,983.98
2018-12-21T05:55:38.901Z,983.93
2018-12-21T05:56:39.048Z,983.88
2018-12-21T05:57:39.199Z,983.88
2018-12-21T05:58:39.345Z,983.87
2018-12-21T05:59:39.492Z,983.89
2018-12-21T06:00:39.640Z,983.79
2018-12-21T06:01:39.788Z,983.72
2018-12-21T06:02:39.936Z,983.71
2018-12-21T06:03:40.084Z,983.77
2018-12-21T06:04:40.233Z,983.77
2018-12-21T06:05:40.378Z,983.80
2018-12-21T06:06:40.528Z,983.74
2018-12-21T06:07:40.677Z,983.68
2018-12-21T06:08:40.825Z,983.66
2018-12-21T06:09:40.973Z,983.62
2018-12-21T06:10:41.121Z,983.61
2018-12-21T06:11:41.266Z,983.59
2018-12-21T06:12:41.413Z,983.57
2018-12-21T06:13:41.562Z,983.58
2018-12-21T06:14:41.708Z,983.55
2018-12-21T06:15:41.857Z,983.54
2018-12-21T06:16:42.006Z,983.48
2018-12-21T06:17:42.155Z,983.46
2018-12-21T06:18:42.300Z,983.45
2018-12-21T06:19:42.452Z,983.43
2018-12-21T06:20:42.599Z,983.39
2018-12-21T06:21:42.751Z,983.41
2018-12-21T06:22:42.900Z,983.35
2018-12-21T06:23:43.043Z,983.33
2018-12-21T06:24:43.190Z,983.42
2018-12-21T06:25:43.342Z,983.35
2018-12-21T06:26:43.484Z,983.32
2018-12-21T06:27:43.633Z,983.31
2018-12-21T06:28:43.784Z,983.32
2018-12-21T06:29:43.933Z,983.31
2018-12-21T06:30:44.079Z,983.31
2018-12-21T06:31:44.228Z,983.30
2018-12-21T06:32:44.375Z,983.27
2018-12-21T06:33:44.524Z,983.32
2018-12-21T06:34:44.689Z,983.33
2018-12-21T06:35:44.820Z,983.30
2018-12-21T06:36:44.970Z,983.36
2018-12-21T06:37:45.115Z,983.30
2018-12-21T06:38:45.264Z,983.34
2018-12-21T06:39:45.412Z,983.31
2018-12-21T06:40:45.558Z,983.40
2018-12-21T06:41:45.706Z,983.31
2018-12-21T06:42:45.854Z,983.30
2018-12-21T06:43:45.999Z,983.26
2018-12-21T06:44:46.149Z,983.28
2018-12-21T06:45:46.296Z,983.18
2018-12-21T06:46:46.446Z,983.18
2018-12-21T06:47:46.594Z,983.20
2018-12-21T06:48:46.800Z,983.26
2018-12-21T06:49:46.892Z,983.22
2018-12-21T06:50:47.040Z,983.25
2018-12-21T06:51:47.187Z,983.25
2018-12-21T06:52:47.334Z,983.27
2018-12-21T06:53:47.483Z,983.25
2018-12-21T06:54:47.631Z,983.18
2018-12-21T06:55:47.781Z,983.16
2018-12-21T06:56:47.929Z,983.11
2018-12-21T06:57:48.077Z,983.11
2018-12-21T06:58:48.226Z,983.11
2018-12-21T06:59:48.369Z,983.05
2018-12-21T07:00:48.518Z,983.06
2018-12-21T07:01:48.675Z,983.06
2018-12-21T07:02:48.811Z,983.05
2018-12-21T07:03:48.961Z,983.05
2018-12-21T07:04:49.107Z,983.02
2018-12-21T07:05:49.257Z,983.00
2018-12-21T07:06:49.405Z,982.92
2018-12-21T07:07:49.554Z,983.08
2018-12-21T07:08:49.701Z,983.10
2018-12-21T07:09:49.849Z,983.04
2018-12-21T07:10:49.999Z,983.01
2018-12-21T07:11:50.147Z,983.02
2018-12-21T07:12:50.295Z,982.98
2018-12-21T07:13:50.441Z,982.97
2018-12-21T07:14:50.591Z,982.92
2018-12-21T07:15:50.735Z,982.84
2018-12-21T07:16:50.884Z,982.74
2018-12-21T07:17:51.035Z,982.76
2018-12-21T07:18:51.181Z,982.72
2018-12-21T07:19:51.331Z,982.69
2018-12-21T07:20:51.476Z,982.67
2018-12-21T07:21:51.624Z,982.67
2018-12-21T07:22:51.771Z,982.65
2018-12-21T07:23:51.919Z,982.53
2018-12-21T07:24:52.066Z,982.53
2018-12-21T07:25:52.214Z,982.48
2018-12-21T07:26:52.365Z,982.49
2018-12-21T07:27:52.511Z,982.39
2018-12-21T07:28:52.660Z,982.43
2018-12-21T07:29:52.808Z,982.39
2018-12-21T07:30:52.956Z,982.30
2018-12-21T07:31:53.104Z,982.25
2018-12-21T07:32:53.252Z,982.16
2018-12-21T07:33:53.401Z,982.09
2018-12-21T07:34:53.548Z,982.09
2018-12-21T07:35:53.695Z,982.07
2018-12-21T07:36:53.842Z,982.03
2018-12-21T07:37:53.991Z,981.94
2018-12-21T07:38:54.140Z,981.90
2018-12-21T07:39:54.286Z,981.82
2018-12-21T07:40:54.432Z,981.82
2018-12-21T07:41:54.581Z,981.83
2018-12-21T07:42:54.731Z,981.83
2018-12-21T07:43:54.877Z,981.80
2018-12-21T07:44:55.026Z,981.85
2018-12-21T07:45:55.174Z,981.84
2018-12-21T07:46:55.321Z,981.83
2018-12-21T07:47:55.473Z,981.79
2018-12-21T07:48:55.619Z,981.77
2018-12-21T07:49:55.769Z,981.76
2018-12-21T07:50:55.915Z,981.73
2018-12-21T07:51:56.065Z,981.73
2018-12-21T07:52:56.215Z,981.70
2018-12-21T07:53:56.357Z,981.69
2018-12-21T07:54:56.508Z,981.64
2018-12-21T07:55:56.656Z,981.62
2018-12-21T07:56:56.803Z,981.52
2018-12-21T07:57:58.647Z,981.49
2018-12-21T07:58:57.525Z,981.47
2018-12-21T07:59:57.249Z,981.44
2018-12-21T08:00:57.399Z,981.32
2018-12-21T08:01:57.544Z,981.33
2018-12-21T08:02:57.765Z,981.32
2018-12-21T08:03:58.387Z,981.28
2018-12-21T08:04:57.977Z,981.24
2018-12-21T08:05:58.124Z,981.27
2018-12-21T08:06:58.274Z,981.29
2018-12-21T08:07:58.423Z,981.23
2018-12-21T08:08:58.570Z,981.25
2018-12-21T08:09:58.717Z,981.23
2018-12-21T08:10:58.867Z,981.15
2018-12-21T08:11:59.016Z,981.18
2018-12-21T08:12:59.163Z,981.12
2018-12-21T08:13:59.315Z,981.17
2018-12-21T08:14:59.461Z,981.13
2018-12-21T08:15:59.609Z,981.15
2018-12-21T08:16:59.758Z,981.14
2018-12-21T08:17:59.903Z,981.09
2018-12-21T08:19:00.052Z,981.10
2018-12-21T08:20:00.198Z,981.08
2018-12-21T08:21:00.348Z,981.09
2018-12-21T08:22:00.494Z,981.00
2018-12-21T08:23:00.643Z,981.06
2018-12-21T08:24:00.796Z,981.04
2018-12-21T08:25:00.939Z,981.06
2018-12-21T08:26:01.084Z,981.03
2018-12-21T08:27:01.233Z,981.05
2018-12-21T08:28:01.390Z,981.05
2018-12-21T08:29:01.525Z,981.10
2018-12-21T08:30:01.670Z,981.02
2018-12-21T08:31:01.818Z,981.12
2018-12-21T08:32:01.966Z,981.13
2018-12-21T08:33:02.115Z,981.13
2018-12-21T08:34:02.263Z,981.03
2018-12-21T08:35:02.413Z,980.98
2018-12-21T08:36:02.559Z,980.92
2018-12-21T08:37:02.710Z,980.96
2018-12-21T08:38:02.856Z,980.87
2018-12-21T08:39:03.003Z,980.94
2018-12-21T08:40:03.153Z,980.89
2018-12-21T08:41:03.301Z,980.87
2018-12-21T08:42:03.450Z,980.87
2018-12-21T08:43:03.598Z,980.88
2018-12-21T08:44:03.745Z,980.82
2018-12-21T08:45:03.894Z,980.84
2018-12-21T08:46:04.039Z,980.80
2018-12-21T08:47:04.189Z,980.76
2018-12-21T08:48:04.336Z,980.74
2018-12-21T08:49:04.484Z,980.71
2018-12-21T08:50:04.634Z,980.66
2018-12-21T08:51:04.785Z,980.68
2018-12-21T08:52:04.930Z,980.61
2018-12-21T08:53:05.076Z,980.56
2018-12-21T08:54:05.228Z,980.58
2018-12-21T08:55:05.372Z,980.60
2018-12-21T08:56:05.522Z,980.59
2018-12-21T08:57:05.677Z,980.57
2018-12-21T08:58:05.815Z,980.54
2018-12-21T08:59:05.965Z,980.56
2018-12-21T09:00:06.111Z,980.52
2018-12-21T09:01:06.260Z,980.49
2018-12-21T09:02:06.406Z,980.46
2018-12-21T09:03:06.665Z,980.44
2018-12-21T09:04:06.702Z,980.42
2018-12-21T09:05:06.850Z,980.45
2018-12-21T09:06:07.000Z,980.43
2018-12-21T09:07:07.145Z,980.44
2018-12-21T09:08:07.300Z,980.37
2018-12-21T09:09:07.443Z,980.41
2018-12-21T09:10:07.591Z,980.33
2018-12-21T09:11:07.741Z,980.35
2018-12-21T09:12:07.895Z,980.38
2018-12-21T09:13:08.036Z,980.29
2018-12-21T09:14:08.184Z,980.32
2018-12-21T09:15:08.333Z,980.28
2018-12-21T09:16:08.483Z,980.28
2018-12-21T09:17:08.628Z,980.26
2018-12-21T09:18:08.776Z,980.33
2018-12-21T09:19:08.929Z,980.25
2018-12-21T09:20:09.074Z,980.21
2018-12-21T09:21:09.219Z,980.20
2018-12-21T09:22:09.367Z,980.19
2018-12-21T09:23:09.513Z,980.17
2018-12-21T09:24:09.663Z,980.14
2018-12-21T09:25:09.812Z,980.13
2018-12-21T09:26:09.960Z,980.12
2018-12-21T09:27:10.111Z,980.08
2018-12-21T09:28:10.258Z,980.07
2018-12-21T09:29:10.408Z,980.03
2018-12-21T09:30:10.552Z,980.03
2018-12-21T09:31:10.704Z,980.02
2018-12-21T09:32:10.854Z,979.94
2018-12-21T09:33:11.003Z,979.96
2018-12-21T09:34:11.150Z,979.91
2018-12-21T09:35:11.298Z,979.82
2018-12-21T09:36:11.448Z,979.78
2018-12-21T09:37:11.593Z,979.72
2018-12-21T09:38:11.740Z,979.69
2018-12-21T09:39:11.889Z,979.64
2018-12-21T09:40:12.037Z,979.63
2018-12-21T09:41:12.186Z,979.58
2018-12-21T09:42:12.332Z,979.54
2018-12-21T09:43:12.485Z,979.51
2018-12-21T09:44:12.633Z,979.48
2018-12-21T09:45:12.776Z,979.45
2018-12-21T09:46:12.927Z,979.46
2018-12-21T09:47:13.075Z,979.42
2018-12-21T09:48:13.222Z,979.35
2018-12-21T09:49:13.370Z,979.26
2018-12-21T09:50:13.517Z,979.24
2018-12-21T09:51:13.666Z,979.23
2018-12-21T09:52:13.817Z,979.26
2018-12-21T09:53:13.963Z,979.21
2018-12-21T09:54:14.113Z,979.19
2018-12-21T09:55:14.261Z,979.15
2018-12-21T09:56:14.410Z,979.14
2018-12-21T09:57:14.563Z,978.99
2018-12-21T09:58:14.707Z,979.03
2018-12-21T09:59:14.863Z,979.00
2018-12-21T10:00:15.005Z,979.02
2018-12-21T10:01:15.152Z,978.98
2018-12-21T10:02:15.298Z,979.01
2018-12-21T10:03:15.447Z,978.94
2018-12-21T10:04:15.593Z,978.93
2018-12-21T10:05:15.743Z,978.81
2018-12-21T10:06:15.891Z,978.78
2018-12-21T10:07:16.040Z,978.68
2018-12-21T10:08:16.187Z,978.67
2018-12-21T10:09:16.334Z,978.58
2018-12-21T10:10:16.483Z,978.57
2018-12-21T10:11:16.632Z,978.49
2018-12-21T10:12:16.783Z,978.51
2018-12-21T10:13:16.931Z,978.49
2018-12-21T10:14:17.079Z,978.45
2018-12-21T10:15:17.228Z,978.48
2018-12-21T10:16:17.376Z,978.38
2018-12-21T10:17:17.522Z,978.31
2018-12-21T10:18:17.682Z,978.31
2018-12-21T10:19:17.820Z,978.31
2018-12-21T10:20:20.074Z,978.27
2018-12-21T10:21:18.117Z,978.16
2018-12-21T10:22:18.264Z,978.19
2018-12-21T10:23:18.410Z,978.01
2018-12-21T10:24:18.913Z,978.01
2018-12-21T10:25:18.706Z,977.92
2018-12-21T10:26:18.853Z,977.89
2018-12-21T10:27:19.011Z,977.99
2018-12-21T10:28:19.158Z,977.98
2018-12-21T10:29:19.307Z,977.96
2018-12-21T10:30:19.461Z,977.97
2018-12-21T10:31:19.608Z,977.84
2018-12-21T10:32:19.756Z,977.88
2018-12-21T10:33:19.906Z,977.82
2018-12-21T10:34:20.050Z,977.73
2018-12-21T10:35:20.204Z,977.78
2018-12-21T10:36:20.353Z,977.66
2018-12-21T10:37:20.497Z,977.66
2018-12-21T10:38:20.642Z,977.70
2018-12-21T10:39:20.792Z,977.70
2018-12-21T10:40:20.939Z,977.68
2018-12-21T10:41:21.089Z,977.56
2018-12-21T10:42:21.235Z,977.56
2018-12-21T10:43:21.384Z,977.54
2018-12-21T10:44:21.531Z,977.51
2018-12-21T10:45:21.680Z,977.47
2018-12-21T10:46:21.827Z,977.39
2018-12-21T10:47:21.976Z,977.37
2018-12-21T10:48:22.126Z,977.36
2018-12-21T10:49:22.274Z,977.28
2018-12-21T10:50:22.423Z,977.31
2018-12-21T10:51:22.575Z,977.28
2018-12-21T10:52:22.719Z,977.25
2018-12-21T10:53:22.866Z,977.28
2018-12-21T10:54:26.810Z,977.23
2018-12-21T10:55:23.167Z,977.21
2018-12-21T10:56:23.314Z,977.13
2018-12-21T10:57:23.456Z,977.09
2018-12-21T10:58:23.600Z,977.12
2018-12-21T10:59:23.751Z,977.05
2018-12-21T11:00:23.901Z,977.21
2018-12-21T11:01:24.047Z,977.20
2018-12-21T11:02:24.194Z,977.22
2018-12-21T11:03:24.345Z,977.29
2018-12-21T11:04:24.493Z,977.14
2018-12-21T11:05:24.643Z,977.03
2018-12-21T11:06:24.790Z,976.84
2018-12-21T11:07:24.938Z,976.92
2018-12-21T11:08:25.085Z,976.85
2018-12-21T11:09:25.241Z,976.82
2018-12-21T11:10:25.381Z,976.78
2018-12-21T11:11:25.532Z,976.77
2018-12-21T11:12:25.683Z,976.86
2018-12-21T11:13:25.833Z,976.82
2018-12-21T11:14:25.982Z,976.89
2018-12-21T11:15:26.133Z,976.79
2018-12-21T11:16:26.282Z,976.80
2018-12-21T11:17:26.430Z,976.78
2018-12-21T11:18:26.579Z,976.67
2018-12-21T11:19:26.732Z,976.73
2018-12-21T11:20:26.882Z,976.71
2018-12-21T11:21:27.032Z,976.61
2018-12-21T11:22:27.180Z,976.71
2018-12-21T11:23:27.328Z,976.76
2018-12-21T11:24:35.197Z,976.81
2018-12-21T11:25:27.627Z,976.74
2018-12-21T11:26:27.767Z,976.69
2018-12-21T11:27:27.917Z,976.60
2018-12-21T11:28:28.064Z,976.54
2018-12-21T11:29:28.214Z,976.58
2018-12-21T11:30:28.360Z,976.62
2018-12-21T11:31:28.508Z,976.60
2018-12-21T11:32:28.657Z,976.61
2018-12-21T11:33:28.809Z,976.61
2018-12-21T11:34:28.956Z,976.47
2018-12-21T11:35:29.104Z,976.51
2018-12-21T11:36:29.257Z,976.43
2018-12-21T11:37:29.404Z,976.52
2018-12-21T11:38:29.597Z,976.44
2018-12-21T11:39:29.750Z,976.44
2018-12-21T11:40:29.898Z,976.27
2018-12-21T11:41:30.047Z,976.34
2018-12-21T11:42:30.197Z,976.29
2018-12-21T11:43:30.343Z,976.29
2018-12-21T11:44:30.504Z,976.36
2018-12-21T11:45:30.650Z,976.23
2018-12-21T11:46:30.800Z,976.40
2018-12-21T11:47:30.954Z,976.32
2018-12-21T11:48:31.104Z,976.33
2018-12-21T11:49:31.250Z,976.37
2018-12-21T11:50:31.406Z,976.24
2018-12-21T11:51:31.546Z,976.25
2018-12-21T11:52:31.698Z,976.18
2018-12-21T11:53:31.850Z,976.21
2018-12-21T11:54:32.000Z,976.21
2018-12-21T11:55:32.145Z,976.20
2018-12-21T11:56:32.293Z,976.18
2018-12-21T11:57:32.445Z,976.17
2018-12-21T11:58:32.594Z,976.17
2018-12-21T11:59:32.744Z,976.22
2018-12-21T12:00:32.892Z,976.13
2018-12-21T12:01:33.039Z,976.24
2018-12-21T12:02:33.189Z,976.22
2018-12-21T12:03:33.341Z,976.11
2018-12-21T12:04:33.487Z,976.18
2018-12-21T12:05:33.639Z,976.06
2018-12-21T12:06:33.784Z,976.11
2018-12-21T12:07:33.936Z,976.12
2018-12-21T12:08:34.085Z,976.05
2018-12-21T12:09:34.232Z,976.01
2018-12-21T12:10:34.381Z,976.12
2018-12-21T12:11:34.531Z,976.07
2018-12-21T12:12:34.682Z,976.02
2018-12-21T12:13:34.834Z,976.02
2018-12-21T12:14:34.981Z,976.04
2018-12-21T12:15:35.133Z,976.02
2018-12-21T12:16:35.283Z,976.05
2018-12-21T12:17:35.430Z,976.05
2018-12-21T12:18:35.576Z,976.01
2018-12-21T12:19:35.724Z,976.00
2018-12-21T12:20:35.877Z,975.96
2018-12-21T12:21:36.023Z,975.95
2018-12-21T12:22:36.178Z,976.11
2018-12-21T12:23:36.327Z,976.03
2018-12-21T12:24:36.476Z,976.03
2018-12-21T12:25:36.627Z,976.07
2018-12-21T12:26:44.275Z,976.01
2018-12-21T12:27:36.920Z,975.94
2018-12-21T12:28:37.070Z,975.98
2018-12-21T12:29:37.224Z,975.99
2018-12-21T12:30:37.371Z,976.02